createdAt,value
2019-02-17T00:00:47.472Z,96527.74
2019-02-17T00:03:17.216Z,96524.27
2019-02-17T00:05:47.455Z,96527.19
2019-02-17T00:08:16.899Z,96526.30
2019-02-17T00:10:46.645Z,96529.69
2019-02-17T00:13:16.514Z,96531.17
2019-02-17T00:15:46.126Z,96531.27
2019-02-17T00:18:15.930Z,96538.86
2019-02-17T00:20:45.453Z,96532.25
2019-02-17T00:23:14.758Z,96533.12
2019-02-17T00:25:44.455Z,96532.98
2019-02-17T00:28:14.172Z,96533.25
2019-02-17T00:30:43.624Z,96526.91
2019-02-17T00:33:13.405Z,96522.62
2019-02-17T00:35:43.770Z,96526.91
2019-02-17T00:38:14.098Z,96527.26
2019-02-17T00:40:44.200Z,96520.57
2019-02-17T00:43:13.549Z,96518.90
2019-02-17T00:45:43.188Z,96367.36
2019-02-17T00:48:12.907Z,96517.53
2019-02-17T00:50:42.228Z,96512.34
2019-02-17T00:53:11.585Z,96512.45
2019-02-17T00:55:40.938Z,96505.36
2019-02-17T00:58:10.291Z,96505.70
2019-02-17T01:00:40.085Z,96185.66
2019-02-17T01:03:10.729Z,96509.37
2019-02-17T01:05:41.942Z,96507.05
2019-02-17T01:08:11.435Z,96509.37
2019-02-17T01:10:41.160Z,96504.69
2019-02-17T01:13:11.834Z,96497.85
2019-02-17T01:15:41.760Z,96498.08
2019-02-17T01:18:12.067Z,96491.05
2019-02-17T01:20:42.352Z,96497.86
2019-02-17T01:23:12.037Z,96491.95
2019-02-17T01:25:42.328Z,96490.63
2019-02-17T01:28:12.582Z,96485.27
2019-02-17T01:30:43.329Z,96483.05
2019-02-17T01:33:12.659Z,96488.56
2019-02-17T01:35:42.463Z,96488.55
2019-02-17T01:38:12.168Z,96481.48
2019-02-17T01:40:42.800Z,96480.91
2019-02-17T01:43:12.537Z,96483.68
2019-02-17T01:45:42.901Z,96475.88
2019-02-17T01:48:13.071Z,96476.59
2019-02-17T01:50:42.963Z,96483.38
2019-02-17T01:53:13.996Z,96483.58
2019-02-17T01:55:43.328Z,96479.59
2019-02-17T01:58:13.128Z,96481.48
2019-02-17T02:00:42.970Z,96483.38
2019-02-17T02:03:12.319Z,96480.37
2019-02-17T02:05:41.988Z,96475.83
2019-02-17T02:08:11.372Z,96476.05
2019-02-17T02:10:41.498Z,96474.16
2019-02-17T02:13:11.305Z,96469.04
2019-02-17T02:15:41.073Z,96473.38
2019-02-17T02:18:11.739Z,96470.61
2019-02-17T02:20:41.977Z,96465.68
2019-02-17T02:23:12.112Z,96462.27
2019-02-17T02:25:42.024Z,96457.61
2019-02-17T02:28:11.397Z,96462.13
2019-02-17T02:30:41.208Z,96463.08
2019-02-17T02:33:10.651Z,96456.70
2019-02-17T02:35:40.005Z,96460.58
2019-02-17T02:38:09.386Z,96463.36
2019-02-17T02:40:38.760Z,96457.34
2019-02-17T02:43:08.089Z,96456.14
2019-02-17T02:45:38.433Z,96458.73
2019-02-17T02:48:07.789Z,96462.61
2019-02-17T02:50:37.178Z,96453.88
2019-02-17T02:53:06.603Z,96277.81
2019-02-17T02:55:35.920Z,96459.56
2019-02-17T02:58:07.498Z,96459.05
2019-02-17T03:00:38.111Z,96458.33
2019-02-17T03:03:07.481Z,96466.00
2019-02-17T03:05:39.887Z,96461.00
2019-02-17T03:08:09.249Z,96465.88
2019-02-17T03:10:39.368Z,96454.02
2019-02-17T03:13:10.387Z,96450.95
2019-02-17T03:15:40.517Z,96450.75
2019-02-17T03:18:10.242Z,96442.32
2019-02-17T03:20:40.385Z,96440.69
2019-02-17T03:23:09.705Z,96441.42
2019-02-17T03:25:40.552Z,96445.50
2019-02-17T03:28:10.586Z,96448.28
2019-02-17T03:30:40.435Z,96446.86
2019-02-17T03:33:10.188Z,96448.05
2019-02-17T03:35:39.979Z,96443.13
2019-02-17T03:38:10.075Z,96440.86
2019-02-17T03:40:39.778Z,96448.35
2019-02-17T03:43:09.613Z,96447.39
2019-02-17T03:45:39.119Z,96451.94
2019-02-17T03:48:08.920Z,96451.42
2019-02-17T03:50:38.617Z,96450.09
2019-02-17T03:53:08.461Z,96448.34
2019-02-17T03:55:38.236Z,96450.53
2019-02-17T03:58:09.234Z,96453.28
2019-02-17T04:00:39.639Z,96458.38
2019-02-17T04:03:09.574Z,96461.20
2019-02-17T04:05:40.145Z,96470.88
2019-02-17T04:08:10.339Z,96453.97
2019-02-17T04:10:40.147Z,96455.64
2019-02-17T04:13:11.349Z,96452.17
2019-02-17T04:15:41.738Z,96459.53
2019-02-17T04:18:11.124Z,96455.86
2019-02-17T04:20:41.338Z,96452.72
2019-02-17T04:23:11.419Z,96448.98
2019-02-17T04:25:41.200Z,96453.34
2019-02-17T04:28:11.439Z,96456.50
2019-02-17T04:30:41.561Z,96455.39
2019-02-17T04:33:11.808Z,96445.88
2019-02-17T04:35:41.143Z,96444.45
2019-02-17T04:38:10.522Z,96441.34
2019-02-17T04:40:40.507Z,96445.83
2019-02-17T04:43:11.130Z,96441.80
2019-02-17T04:45:41.130Z,96448.37
2019-02-17T04:48:11.372Z,96448.91
2019-02-17T04:50:40.784Z,96449.66
2019-02-17T04:53:10.899Z,96450.83
2019-02-17T04:55:41.510Z,96446.42
2019-02-17T04:58:10.879Z,96462.21
2019-02-17T05:00:40.810Z,96459.94
2019-02-17T05:03:10.947Z,96461.53
2019-02-17T05:05:40.760Z,96463.25
2019-02-17T05:08:10.150Z,96463.50
2019-02-17T05:10:40.703Z,96467.61
2019-02-17T05:13:10.506Z,96471.59
2019-02-17T05:15:40.802Z,96462.85
2019-02-17T05:18:10.647Z,96468.91
2019-02-17T05:20:41.463Z,96473.50
2019-02-17T05:23:11.252Z,96472.48
2019-02-17T05:25:42.023Z,96470.80
2019-02-17T05:28:12.194Z,96471.10
2019-02-17T05:30:52.251Z,96477.48
2019-02-17T05:33:14.127Z,96479.37
2019-02-17T05:35:43.523Z,96479.34
2019-02-17T05:38:12.943Z,96483.25
2019-02-17T05:40:42.418Z,96488.01
2019-02-17T05:43:13.462Z,96489.96
2019-02-17T05:45:44.983Z,96495.78
2019-02-17T05:48:14.818Z,96492.03
2019-02-17T05:50:45.007Z,96499.20
2019-02-17T05:53:16.297Z,96500.28
2019-02-17T05:55:46.080Z,96500.81
2019-02-17T05:58:15.920Z,96499.70
2019-02-17T06:00:46.959Z,96502.73
2019-02-17T06:03:17.379Z,96496.67
2019-02-17T06:05:47.064Z,96500.09
2019-02-17T06:08:17.764Z,96505.84
2019-02-17T06:10:47.998Z,96504.80
2019-02-17T06:13:17.787Z,96504.80
2019-02-17T06:15:48.618Z,96496.72
2019-02-17T06:18:18.462Z,96496.72
2019-02-17T06:20:47.835Z,96498.95
2019-02-17T06:23:17.965Z,96494.31
2019-02-17T06:25:47.782Z,96492.19
2019-02-17T06:28:17.114Z,96490.95
2019-02-17T06:30:46.775Z,96497.47
2019-02-17T06:33:17.583Z,96490.52
2019-02-17T06:35:47.384Z,96502.64
2019-02-17T06:38:17.188Z,96506.61
2019-02-17T06:40:47.200Z,96501.59
2019-02-17T06:43:17.394Z,96511.14
2019-02-17T06:45:48.179Z,96515.27
2019-02-17T06:48:19.329Z,96512.11
2019-02-17T06:50:49.465Z,96509.98
2019-02-17T06:53:19.948Z,96514.57
2019-02-17T06:55:54.365Z,96516.48
2019-02-17T06:58:23.855Z,96509.04
2019-02-17T07:00:55.092Z,96509.05
2019-02-17T07:03:24.445Z,96515.74
2019-02-17T07:06:22.183Z,96518.95
2019-02-17T07:08:51.552Z,96516.45
2019-02-17T07:11:23.282Z,96513.84
2019-02-17T07:13:52.005Z,96516.52
2019-02-17T07:16:22.860Z,96511.72
2019-02-17T07:18:52.192Z,96515.45
2019-02-17T07:21:21.674Z,96508.80
2019-02-17T07:23:51.192Z,96511.98
2019-02-17T07:26:20.524Z,96341.20
2019-02-17T07:28:49.882Z,96513.83
2019-02-17T07:31:19.223Z,96516.19
2019-02-17T07:33:48.572Z,96517.50
2019-02-17T07:36:17.907Z,96517.05
2019-02-17T07:38:47.229Z,96514.16
2019-02-17T07:41:16.552Z,96509.01
2019-02-17T07:43:45.933Z,96508.92
2019-02-17T07:46:17.261Z,96506.25
2019-02-17T07:48:46.603Z,96508.87
2019-02-17T07:51:16.224Z,96504.86
2019-02-17T07:53:45.578Z,96501.77
2019-02-17T07:56:15.011Z,96503.83
2019-02-17T07:58:44.356Z,96502.30
2019-02-17T08:01:13.667Z,96501.00
2019-02-17T08:03:42.986Z,96505.19
2019-02-17T08:06:12.339Z,96505.70
2019-02-17T08:08:41.712Z,96499.88
2019-02-17T08:11:11.072Z,96498.44
2019-02-17T08:13:40.406Z,96499.02
2019-02-17T08:16:09.741Z,96494.18
2019-02-17T08:18:39.091Z,96497.92
2019-02-17T08:21:08.463Z,96494.20
2019-02-17T08:23:37.883Z,96493.60
2019-02-17T08:26:07.210Z,96495.98
2019-02-17T08:28:36.546Z,96282.24
2019-02-17T08:31:05.865Z,96500.27
2019-02-17T08:33:38.296Z,96488.65
2019-02-17T08:36:07.645Z,96488.77
2019-02-17T08:38:36.967Z,96488.95
2019-02-17T08:41:06.331Z,96493.92
2019-02-17T08:43:35.701Z,96489.84
2019-02-17T08:46:06.202Z,96485.69
2019-02-17T08:48:35.602Z,96484.89
2019-02-17T08:51:04.943Z,96477.66
2019-02-17T08:53:34.291Z,96470.55
2019-02-17T08:56:03.633Z,96474.91
2019-02-17T08:58:33.387Z,96478.20
2019-02-17T09:01:02.743Z,96477.36
2019-02-17T09:03:32.106Z,96479.09
2019-02-17T09:06:01.459Z,96475.06
2019-02-17T09:08:30.817Z,96477.94
2019-02-17T09:11:00.169Z,96475.84
2019-02-17T09:13:29.539Z,96474.77
2019-02-17T09:15:58.916Z,96472.25
2019-02-17T09:18:28.267Z,96467.77
2019-02-17T09:20:57.649Z,96467.76
2019-02-17T09:23:27.005Z,96474.14
2019-02-17T09:25:56.390Z,96473.33
2019-02-17T09:28:25.751Z,96469.44
2019-02-17T09:30:55.135Z,96471.70
2019-02-17T09:33:24.516Z,96461.95
2019-02-17T09:35:53.890Z,96462.44
2019-02-17T09:38:23.257Z,96466.27
2019-02-17T09:40:52.656Z,96465.19
2019-02-17T09:43:22.020Z,96469.48
2019-02-17T09:45:51.380Z,96465.20
2019-02-17T09:48:20.725Z,96459.35
2019-02-17T09:50:50.074Z,96459.72
2019-02-17T09:53:19.418Z,96456.79
2019-02-17T09:55:48.940Z,96450.93
2019-02-17T09:58:18.385Z,96444.17
2019-02-17T10:00:48.002Z,96447.02
2019-02-17T10:03:18.191Z,96433.84
2019-02-17T10:05:47.561Z,96430.67
2019-02-17T10:08:16.940Z,96433.97
2019-02-17T10:10:46.307Z,96425.16
2019-02-17T10:13:15.672Z,96416.64
2019-02-17T10:15:45.493Z,96415.78
2019-02-17T10:18:14.870Z,96420.31
2019-02-17T10:20:44.200Z,96414.72
2019-02-17T10:23:13.511Z,96406.39
2019-02-17T10:25:43.350Z,96402.84
2019-02-17T10:28:12.749Z,96405.44
2019-02-17T10:30:43.020Z,96397.72
2019-02-17T10:33:12.395Z,96398.85
2019-02-17T10:35:41.793Z,96389.95
2019-02-17T10:38:11.119Z,96372.19
2019-02-17T10:40:41.287Z,96372.19
2019-02-17T10:43:11.534Z,96375.14
2019-02-17T10:45:40.900Z,96362.09
2019-02-17T10:48:11.124Z,96362.86
2019-02-17T10:50:40.531Z,96345.41
2019-02-17T10:53:09.923Z,96345.41
2019-02-17T10:55:39.647Z,96343.14
2019-02-17T10:58:09.064Z,96342.11
2019-02-17T11:00:38.688Z,96343.86
2019-02-17T11:03:09.643Z,96340.27
2019-02-17T11:05:39.025Z,96336.47
2019-02-17T11:08:08.378Z,96335.80
2019-02-17T11:10:38.195Z,96328.47
2019-02-17T11:13:07.552Z,96326.40
2019-02-17T11:15:36.908Z,96316.94
2019-02-17T11:18:06.273Z,96317.80
2019-02-17T11:20:35.773Z,96319.98
2019-02-17T11:23:05.132Z,96306.45
2019-02-17T11:25:34.555Z,96305.78
2019-02-17T11:28:04.767Z,96298.25
2019-02-17T11:30:34.130Z,96288.55
2019-02-17T11:33:03.547Z,96284.26
2019-02-17T11:35:32.982Z,96288.32
2019-02-17T11:38:02.349Z,96278.66
2019-02-17T11:40:31.680Z,96273.75
2019-02-17T11:43:00.999Z,96274.77
2019-02-17T11:45:30.372Z,96270.60
2019-02-17T11:47:59.792Z,96277.64
2019-02-17T11:50:29.347Z,96269.55
2019-02-17T11:52:58.726Z,96265.93
2019-02-17T11:55:28.143Z,96264.92
2019-02-17T11:57:57.515Z,96256.87
2019-02-17T12:00:26.861Z,96262.81
2019-02-17T12:02:56.203Z,96253.66
2019-02-17T12:05:25.674Z,96243.67
2019-02-17T12:07:56.920Z,96245.63
2019-02-17T12:10:26.273Z,96232.52
2019-02-17T12:12:55.677Z,96233.63
2019-02-17T12:15:25.040Z,96226.59
2019-02-17T12:17:54.379Z,96229.63
2019-02-17T12:20:41.491Z,96232.17
2019-02-17T12:23:17.546Z,96222.55
2019-02-17T12:25:54.846Z,96222.90
2019-02-17T12:28:34.800Z,96213.63
2019-02-17T12:31:04.164Z,96066.55
2019-02-17T12:33:33.467Z,96209.17
2019-02-17T12:36:02.793Z,96198.66
2019-02-17T12:38:32.181Z,96197.34
2019-02-17T12:41:01.566Z,96190.41
2019-02-17T12:43:30.987Z,96199.84
2019-02-17T12:46:00.340Z,96191.66
2019-02-17T12:48:29.732Z,96188.72
2019-02-17T12:51:00.184Z,96183.61
2019-02-17T12:53:29.744Z,96174.89
2019-02-17T12:55:59.087Z,96167.80
2019-02-17T12:58:30.150Z,96175.64
2019-02-17T13:00:59.685Z,96170.28
2019-02-17T13:03:29.056Z,96168.51
2019-02-17T13:05:58.395Z,96161.95
2019-02-17T13:08:27.822Z,96157.67
2019-02-17T13:10:57.175Z,96156.75
2019-02-17T13:13:26.604Z,96161.06
2019-02-17T13:15:56.273Z,96156.27
2019-02-17T13:18:26.661Z,96156.27
2019-02-17T13:20:56.016Z,96151.33
2019-02-17T13:23:25.372Z,96148.16
2019-02-17T13:25:54.740Z,96149.99
2019-02-17T13:28:24.175Z,96152.71
2019-02-17T13:30:53.879Z,96144.76
2019-02-17T13:33:23.352Z,96140.92
2019-02-17T13:35:52.696Z,96146.36
2019-02-17T13:38:22.024Z,96143.98
2019-02-17T13:40:51.432Z,96145.91
2019-02-17T13:43:21.036Z,96144.30
2019-02-17T13:45:50.501Z,96140.17
2019-02-17T13:48:19.894Z,96143.02
2019-02-17T13:50:49.292Z,96139.02
2019-02-17T13:53:18.694Z,96140.66
2019-02-17T13:55:48.051Z,96130.35
2019-02-17T13:58:17.398Z,96133.53
2019-02-17T14:00:47.024Z,96133.19
2019-02-17T14:03:16.373Z,96133.39
2019-02-17T14:05:46.021Z,96137.36
2019-02-17T14:08:15.351Z,96135.20
2019-02-17T14:10:44.697Z,96129.18
2019-02-17T14:13:14.145Z,96124.52
2019-02-17T14:15:43.458Z,96127.41
2019-02-17T14:18:12.859Z,96120.70
2019-02-17T14:20:42.215Z,96124.24
2019-02-17T14:23:11.633Z,96121.59
2019-02-17T14:25:40.956Z,96124.73
2019-02-17T14:28:10.303Z,96123.05
2019-02-17T14:30:39.721Z,96126.88
2019-02-17T14:33:09.132Z,96115.78
2019-02-17T14:35:38.498Z,96120.55
2019-02-17T14:38:07.991Z,96114.52
2019-02-17T14:40:37.339Z,96112.41
2019-02-17T14:43:06.688Z,96110.55
2019-02-17T14:45:36.036Z,96112.65
2019-02-17T14:48:05.362Z,96109.55
2019-02-17T14:50:34.726Z,96110.17
2019-02-17T14:53:04.342Z,96104.05
2019-02-17T14:55:33.672Z,96100.00
2019-02-17T14:58:05.711Z,96100.05
2019-02-17T15:00:34.147Z,96101.55
2019-02-17T15:03:03.490Z,96095.50
2019-02-17T15:05:32.905Z,96100.89
2019-02-17T15:08:02.811Z,95941.29
2019-02-17T15:10:32.149Z,96104.50
2019-02-17T15:13:01.569Z,96094.06
2019-02-17T15:15:30.923Z,96105.58
2019-02-17T15:18:00.282Z,96105.23
2019-02-17T15:20:29.613Z,96102.47
2019-02-17T15:22:58.984Z,96107.27
2019-02-17T15:25:28.316Z,96105.63
2019-02-17T15:27:57.654Z,96102.39
2019-02-17T15:30:26.987Z,96111.63
2019-02-17T15:33:03.534Z,96106.77
2019-02-17T15:35:27.470Z,96102.84
2019-02-17T15:37:56.801Z,96102.30
2019-02-17T15:40:26.130Z,96103.73
2019-02-17T15:42:55.433Z,96102.34
2019-02-17T15:45:24.770Z,96100.47
2019-02-17T15:47:54.126Z,96105.95
2019-02-17T15:50:23.483Z,96114.06
2019-02-17T15:52:55.358Z,96110.67
2019-02-17T15:55:24.746Z,96111.48
2019-02-17T15:57:54.055Z,96122.88
2019-02-17T16:00:23.439Z,96120.23
2019-02-17T16:02:52.790Z,96124.73
2019-02-17T16:05:22.161Z,96129.02
2019-02-17T16:07:51.538Z,96123.54
2019-02-17T16:10:20.895Z,96126.54
2019-02-17T16:12:50.299Z,96131.00
2019-02-17T16:15:19.734Z,96127.64
2019-02-17T16:17:49.105Z,96132.16
2019-02-17T16:20:18.457Z,96133.03
2019-02-17T16:22:47.999Z,96144.13
2019-02-17T16:25:17.378Z,96140.41
2019-02-17T16:27:46.725Z,96151.34
2019-02-17T16:30:16.280Z,96148.52
2019-02-17T16:32:45.659Z,96151.09
2019-02-17T16:35:15.076Z,96143.77
2019-02-17T16:37:44.461Z,96151.87
2019-02-17T16:40:15.044Z,96156.12
2019-02-17T16:42:44.795Z,96152.52
2019-02-17T16:45:13.983Z,96156.47
2019-02-17T16:47:43.814Z,96162.48
2019-02-17T16:50:15.569Z,96162.86
2019-02-17T16:52:44.931Z,96165.07
2019-02-17T16:55:14.512Z,96164.20
2019-02-17T16:57:43.926Z,96162.48
2019-02-17T17:00:16.065Z,96165.02
2019-02-17T17:02:45.546Z,96169.50
2019-02-17T17:05:18.004Z,96168.72
2019-02-17T17:07:47.368Z,96173.98
2019-02-17T17:10:17.141Z,96174.23
2019-02-17T17:12:46.486Z,96174.09
2019-02-17T17:15:16.651Z,96169.94
2019-02-17T17:17:46.127Z,96174.69
2019-02-17T17:20:15.891Z,96172.37
2019-02-17T17:22:45.267Z,96174.48
2019-02-17T17:25:15.421Z,96181.32
2019-02-17T17:27:44.762Z,96186.09
2019-02-17T17:30:14.562Z,96176.45
2019-02-17T17:32:44.883Z,96178.59
2019-02-17T17:35:14.455Z,96177.83
2019-02-17T17:37:44.772Z,96179.28
2019-02-17T17:40:14.449Z,96176.95
2019-02-17T17:42:43.826Z,96178.58
2019-02-17T17:45:14.063Z,96188.95
2019-02-17T17:47:43.421Z,96186.26
2019-02-17T17:50:13.563Z,96186.30
2019-02-17T17:52:43.825Z,96184.96
2019-02-17T17:55:13.634Z,96191.25
2019-02-17T17:57:43.013Z,96187.27
2019-02-17T18:00:14.966Z,96188.47
2019-02-17T18:02:44.362Z,96184.17
2019-02-17T18:05:13.898Z,96190.63
2019-02-17T18:07:43.309Z,96184.80
2019-02-17T18:10:13.749Z,96187.75
2019-02-17T18:12:43.111Z,96191.64
2019-02-17T18:15:13.465Z,96188.43
2019-02-17T18:17:42.688Z,96188.28
2019-02-17T18:20:12.348Z,96185.99
2019-02-17T18:22:41.793Z,96197.06
2019-02-17T18:25:11.865Z,96194.23
2019-02-17T18:27:41.215Z,96190.37
2019-02-17T18:30:13.274Z,96191.79
2019-02-17T18:32:42.644Z,96190.27
2019-02-17T18:35:19.222Z,96179.94
2019-02-17T18:37:43.118Z,96184.02
2019-02-17T18:40:12.516Z,96192.11
2019-02-17T18:42:41.853Z,96190.08
2019-02-17T18:45:11.890Z,96190.16
2019-02-17T18:47:41.445Z,96194.06
2019-02-17T18:50:20.412Z,96198.63
2019-02-17T18:52:49.918Z,96198.97
2019-02-17T18:55:19.458Z,96195.52
2019-02-17T18:57:50.839Z,96194.00
2019-02-17T19:00:19.816Z,96196.26
2019-02-17T19:02:51.013Z,96198.67
2019-02-17T19:05:31.044Z,96197.73
2019-02-17T19:07:51.597Z,96196.39
2019-02-17T19:10:21.062Z,96198.51
2019-02-17T19:12:51.847Z,96200.09
2019-02-17T19:15:21.675Z,96206.63
2019-02-17T19:17:51.035Z,96204.52
2019-02-17T19:20:21.288Z,96200.72
2019-02-17T19:22:50.671Z,96209.38
2019-02-17T19:25:20.035Z,96209.61
2019-02-17T19:27:49.362Z,96206.25
2019-02-17T19:30:21.173Z,96203.06
2019-02-17T19:32:50.572Z,96201.72
2019-02-17T19:35:20.009Z,96200.34
2019-02-17T19:37:49.395Z,96203.84
2019-02-17T19:40:19.003Z,96201.52
2019-02-17T19:42:49.607Z,96203.84
2019-02-17T19:45:19.076Z,96202.20
2019-02-17T19:47:48.950Z,96197.36
2019-02-17T19:50:19.094Z,96203.03
2019-02-17T19:52:48.470Z,96206.02
2019-02-17T19:55:17.855Z,96207.39
2019-02-17T19:57:47.343Z,96203.69
2019-02-17T20:00:16.715Z,96208.55
2019-02-17T20:03:05.034Z,96211.48
2019-02-17T20:05:36.645Z,96206.14
2019-02-17T20:08:07.309Z,96212.04
2019-02-17T20:10:36.660Z,96212.08
2019-02-17T20:13:08.245Z,96219.86
2019-02-17T20:15:37.265Z,96215.86
2019-02-17T20:18:06.800Z,96218.52
2019-02-17T20:20:38.447Z,96211.30
2019-02-17T20:23:08.207Z,96216.16
2019-02-17T20:25:37.579Z,96216.72
2019-02-17T20:28:07.107Z,96213.83
2019-02-17T20:30:36.539Z,96221.91
2019-02-17T20:33:05.881Z,96214.69
2019-02-17T20:35:35.273Z,96224.41
2019-02-17T20:38:06.182Z,96223.69
2019-02-17T20:40:35.525Z,96217.01
2019-02-17T20:43:04.860Z,96213.25
2019-02-17T20:45:34.229Z,96215.16
2019-02-17T20:48:03.592Z,96215.48
2019-02-17T20:50:33.035Z,96211.19
2019-02-17T20:53:02.431Z,96217.65
2019-02-17T20:55:31.862Z,96216.61
2019-02-17T20:58:01.214Z,96218.53
2019-02-17T21:00:30.556Z,96215.85
2019-02-17T21:03:01.110Z,96216.70
2019-02-17T21:05:30.509Z,96211.98
2019-02-17T21:07:59.944Z,96215.44
2019-02-17T21:10:29.256Z,96222.14
2019-02-17T21:12:58.605Z,96224.02
2019-02-17T21:15:27.989Z,96222.26
2019-02-17T21:17:57.417Z,96218.53
2019-02-17T21:20:27.249Z,96223.02
2019-02-17T21:22:56.836Z,96220.96
2019-02-17T21:25:26.608Z,96226.38
2019-02-17T21:27:56.025Z,96225.55
2019-02-17T21:30:25.355Z,96228.06
2019-02-17T21:32:54.722Z,96228.58
2019-02-17T21:35:24.137Z,96228.31
2019-02-17T21:37:53.588Z,96231.88
2019-02-17T21:40:22.957Z,96238.26
2019-02-17T21:42:52.365Z,96228.59
2019-02-17T21:45:21.719Z,96227.48
2019-02-17T21:47:51.040Z,96230.25
2019-02-17T21:50:20.403Z,96224.39
2019-02-17T21:52:49.725Z,96230.05
2019-02-17T21:55:19.142Z,96223.94
2019-02-17T21:57:48.482Z,96242.13
2019-02-17T22:00:19.441Z,96243.45
2019-02-17T22:02:48.943Z,96245.56
2019-02-17T22:05:19.243Z,96242.61
2019-02-17T22:07:48.672Z,96243.36
2019-02-17T22:10:18.045Z,96241.27
2019-02-17T22:12:47.438Z,96241.27
2019-02-17T22:15:16.859Z,96249.44
2019-02-17T22:17:46.259Z,96245.86
2019-02-17T22:20:15.673Z,96254.95
2019-02-17T22:22:45.008Z,96252.59
2019-02-17T22:25:14.924Z,96245.97
2019-02-17T22:27:44.385Z,96245.97
2019-02-17T22:30:13.858Z,96241.41
2019-02-17T22:32:43.373Z,96241.41
2019-02-17T22:35:12.823Z,96251.30
2019-02-17T22:37:42.202Z,96251.55
2019-02-17T22:40:11.550Z,96251.27
2019-02-17T22:42:40.922Z,96241.45
2019-02-17T22:45:10.371Z,96241.45
2019-02-17T22:47:39.745Z,96244.97
2019-02-17T22:50:09.990Z,96244.67
2019-02-17T22:52:39.383Z,96241.75
2019-02-17T22:55:09.853Z,96242.05
2019-02-17T22:57:39.260Z,96240.16
2019-02-17T23:00:35.256Z,96244.64
2019-02-17T23:03:05.196Z,96252.37
2019-02-17T23:05:35.732Z,96238.78
2019-02-17T23:08:05.056Z,96249.42
2019-02-17T23:10:34.398Z,96238.80
2019-02-17T23:13:03.948Z,96238.80
2019-02-17T23:15:33.481Z,96244.42
2019-02-17T23:18:02.827Z,96243.08
2019-02-17T23:20:32.269Z,96239.34
2019-02-17T23:23:01.662Z,96237.99
2019-02-17T23:25:31.168Z,96240.44
2019-02-17T23:28:00.599Z,96235.65
2019-02-17T23:30:29.984Z,96232.95
2019-02-17T23:32:59.379Z,96231.34
2019-02-17T23:35:28.753Z,96239.88
2019-02-17T23:37:58.099Z,96238.84
2019-02-17T23:40:27.472Z,96233.75
2019-02-17T23:42:56.800Z,96233.75
2019-02-17T23:45:26.162Z,96236.46
2019-02-17T23:47:55.490Z,96229.83
2019-02-17T23:50:24.887Z,96238.37
2019-02-17T23:52:54.777Z,96238.37
2019-02-17T23:55:24.168Z,96239.43
2019-02-17T23:57:53.517Z,96234.05
